createdAt,value
2023-01-20T07:35:41.134Z,140298.78
2023-01-20T07:40:44.524Z,140312.31
2023-01-20T07:45:48.066Z,140286.53
2023-01-20T07:51:01.960Z,140317.22
2023-01-20T07:56:05.949Z,140320.88
2023-01-20T08:01:10.309Z,140273.03
2023-01-20T08:06:16.010Z,140302.47
2023-01-20T08:11:20.244Z,140309.88
2023-01-20T08:16:23.726Z,140318.44
2023-01-20T08:21:29.248Z,140296.34
2023-01-20T08:26:32.756Z,140291.44
2023-01-20T08:31:36.578Z,140312.31
2023-01-20T08:36:42.148Z,140336.88
2023-01-20T08:41:46.282Z,140344.22
2023-01-20T08:46:52.611Z,140329.47
2023-01-20T08:51:57.464Z,140318.44
2023-01-20T08:57:00.903Z,140231.34
2023-01-20T09:02:06.420Z,140257.09
2023-01-20T09:07:13.634Z,140313.53
2023-01-20T09:12:17.288Z,140339.31
2023-01-20T09:17:25.167Z,140350.34
2023-01-20T09:22:34.000Z,140354.00
2023-01-20T09:27:37.480Z,140248.53
2023-01-20T09:32:40.951Z,140312.31
2023-01-20T09:38:03.580Z,140280.41
2023-01-20T09:43:28.917Z,140331.97
2023-01-20T09:48:54.726Z,140363.88
2023-01-20T09:54:08.105Z,140378.56
2023-01-20T09:59:14.585Z,140400.66
2023-01-20T10:04:21.570Z,140420.31
2023-01-20T10:09:42.228Z,140416.66
2023-01-20T10:14:46.994Z,140437.47
2023-01-20T10:19:52.893Z,140446.09
2023-01-20T10:25:05.619Z,140415.41
2023-01-20T10:30:10.715Z,140437.47
2023-01-20T10:35:17.404Z,140405.56
2023-01-20T10:40:31.610Z,140277.97
2023-01-20T10:45:49.430Z,140425.22
2023-01-20T10:50:59.737Z,140479.19
2023-01-20T10:56:17.076Z,140547.94
2023-01-20T11:01:21.538Z,140522.16
2023-01-20T11:06:26.833Z,140458.38
2023-01-20T11:11:34.330Z,140482.88
2023-01-20T11:16:40.470Z,140536.91
2023-01-20T11:22:11.198Z,140530.78
2023-01-20T11:27:18.041Z,140522.16
2023-01-20T11:32:32.463Z,140495.13
2023-01-20T11:37:37.163Z,140512.34
2023-01-20T11:42:46.139Z,140533.22
2023-01-20T11:48:00.386Z,140493.91
2023-01-20T11:53:32.160Z,140512.34
2023-01-20T11:58:50.354Z,140464.50
2023-01-20T12:04:01.195Z,140549.19
2023-01-20T12:09:13.000Z,140605.69
2023-01-20T12:14:24.902Z,140613.09
2023-01-20T12:19:33.435Z,140543.03
2023-01-20T12:25:03.008Z,140611.84
2023-01-20T12:30:16.610Z,140562.72
2023-01-20T12:35:22.168Z,140560.25
2023-01-20T12:40:31.152Z,140560.25
2023-01-20T12:45:46.403Z,140592.19
2023-01-20T12:50:57.371Z,140636.38
2023-01-20T12:56:10.843Z,140593.41
2023-01-20T13:01:28.968Z,140620.44
2023-01-20T13:06:50.629Z,140631.47
2023-01-20T13:12:02.089Z,140670.81
2023-01-20T13:17:11.347Z,140659.75
2023-01-20T13:22:17.499Z,140654.84
2023-01-20T13:27:24.697Z,140643.78
2023-01-20T13:32:34.643Z,140630.25
2023-01-20T13:37:39.534Z,140629.03
2023-01-20T13:42:51.437Z,140668.38
2023-01-20T13:48:03.935Z,140660.97
2023-01-20T13:53:14.802Z,140562.72
2023-01-20T13:58:19.327Z,140570.06
2023-01-20T14:03:26.078Z,140578.66
2023-01-20T14:08:30.621Z,140578.66
2023-01-20T14:13:34.307Z,140550.41
2023-01-20T14:18:41.848Z,140556.56
2023-01-20T14:23:47.159Z,140582.38
2023-01-20T14:28:52.006Z,140550.41
2023-01-20T14:34:04.163Z,140400.66
2023-01-20T14:39:14.353Z,140422.78
2023-01-20T14:44:20.244Z,140414.16
2023-01-20T14:49:27.956Z,140484.09
2023-01-20T14:54:35.639Z,140457.13
2023-01-20T14:59:39.645Z,140471.91
2023-01-20T15:05:03.634Z,140449.78
2023-01-20T15:10:19.845Z,140221.53
2023-01-20T15:15:29.638Z,140497.59
2023-01-20T15:21:15.485Z,140501.31
2023-01-20T15:26:48.543Z,140479.19
2023-01-20T15:32:33.626Z,140405.56
2023-01-20T15:37:50.480Z,140439.94
2023-01-20T15:42:55.012Z,140410.47
2023-01-20T15:47:59.003Z,140422.78
2023-01-20T15:53:06.396Z,140414.16
2023-01-20T15:58:21.343Z,140443.66
2023-01-20T16:03:26.310Z,140452.22
2023-01-20T16:08:35.920Z,140454.69
2023-01-20T16:13:40.099Z,140389.63
2023-01-20T16:18:44.134Z,140255.88
2023-01-20T16:23:49.123Z,140357.69
2023-01-20T16:28:53.452Z,140414.16
2023-01-20T16:33:57.369Z,140349.09
2023-01-20T16:39:04.849Z,140349.09
2023-01-20T16:44:08.621Z,140231.34
2023-01-20T16:49:12.322Z,140275.53
2023-01-20T16:54:23.391Z,140311.09
2023-01-20T16:59:27.265Z,140320.88
2023-01-20T17:04:31.210Z,140293.88
2023-01-20T17:09:36.322Z,140268.13
2023-01-20T17:14:46.697Z,140263.22
2023-01-20T17:19:54.704Z,140258.31
2023-01-20T17:25:06.968Z,140224.00
2023-01-20T17:30:11.362Z,140242.34
2023-01-20T17:35:15.239Z,140239.91
2023-01-20T17:40:22.996Z,140184.75
2023-01-20T17:45:28.617Z,140184.75
2023-01-20T17:50:32.608Z,140135.75
2023-01-20T17:55:37.740Z,140165.19
2023-01-20T18:00:55.458Z,140087.91
2023-01-20T18:05:59.008Z,140084.25
2023-01-20T18:11:05.040Z,140112.44
2023-01-20T18:16:10.978Z,140127.13
2023-01-20T18:21:15.917Z,140156.56
2023-01-20T18:26:22.356Z,140057.28
2023-01-20T18:31:26.831Z,140048.66
2023-01-20T18:36:31.576Z,140054.84
2023-01-20T18:41:37.947Z,140086.69
2023-01-20T18:46:41.886Z,140070.75
2023-01-20T18:51:45.735Z,140043.78
2023-01-20T18:56:50.916Z,140049.88
2023-01-20T19:01:59.336Z,139998.47
2023-01-20T19:07:03.244Z,139976.38
2023-01-20T19:12:09.261Z,140045.00
2023-01-20T19:17:15.669Z,140005.78
2023-01-20T19:22:19.763Z,140015.59
2023-01-20T19:27:26.590Z,140030.31
2023-01-20T19:32:30.671Z,139993.50
2023-01-20T19:37:35.026Z,139991.06
2023-01-20T19:42:40.212Z,139948.22
2023-01-20T19:47:44.271Z,139954.31
2023-01-20T19:52:47.777Z,139950.66
2023-01-20T19:57:53.520Z,139949.44
2023-01-20T20:02:57.277Z,139988.63
2023-01-20T20:08:01.351Z,139999.69
2023-01-20T20:13:09.575Z,139933.53
2023-01-20T20:18:13.180Z,139901.69
2023-01-20T20:23:21.286Z,139901.69
2023-01-20T20:28:27.336Z,139869.84
2023-01-20T20:33:30.989Z,139869.84
2023-01-20T20:38:36.700Z,139864.97
2023-01-20T20:43:41.669Z,139862.50
2023-01-20T20:48:45.339Z,139849.00
2023-01-20T20:53:48.884Z,139819.63
2023-01-20T20:59:01.447Z,139829.44
2023-01-20T21:04:06.704Z,139820.84
2023-01-20T21:09:10.889Z,139835.56
2023-01-20T21:14:15.977Z,139828.19
2023-01-20T21:19:19.799Z,139825.75
2023-01-20T21:24:29.200Z,139803.72
2023-01-20T21:29:34.395Z,139808.63
2023-01-20T21:34:38.126Z,139830.69
2023-01-20T21:39:41.728Z,139770.63
2023-01-20T21:44:46.944Z,139819.63
2023-01-20T21:50:08.013Z,139808.63
2023-01-20T21:55:16.480Z,139742.47
2023-01-20T22:00:22.360Z,139753.53
2023-01-20T22:05:26.447Z,139724.16
2023-01-20T22:10:30.204Z,139731.47
2023-01-20T22:15:35.913Z,139716.78
2023-01-20T22:20:39.900Z,139715.56
2023-01-20T22:25:43.702Z,139727.81
